sensor_id;sensor_type;location;lat;lon;timestamp;P1;durP1;ratioP1;P2;durP2;ratioP2
58260;SDS011;44058;52.898;6.502;2022-12-29T00:00:10;4.22;;;3.83;;
58260;SDS011;44058;52.898;6.502;2022-12-29T00:02:38;4.88;;;4.35;;
58260;SDS011;44058;52.898;6.502;2022-12-29T00:05:04;4.78;;;4.20;;
58260;SDS011;44058;52.898;6.502;2022-12-29T00:07:30;5.75;;;4.60;;
58260;SDS011;44058;52.898;6.502;2022-12-29T00:09:56;5.10;;;4.60;;
58260;SDS011;44058;52.898;6.502;2022-12-29T00:12:23;4.15;;;3.85;;
58260;SDS011;44058;52.898;6.502;2022-12-29T00:14:49;4.80;;;4.38;;
58260;SDS011;44058;52.898;6.502;2022-12-29T00:17:34;4.72;;;4.30;;
58260;SDS011;44058;52.898;6.502;2022-12-29T00:20:00;4.78;;;4.38;;
58260;SDS011;44058;52.898;6.502;2022-12-29T00:22:45;4.85;;;4.45;;
58260;SDS011;44058;52.898;6.502;2022-12-29T00:25:30;4.82;;;4.32;;
58260;SDS011;44058;52.898;6.502;2022-12-29T00:28:15;4.57;;;4.18;;
58260;SDS011;44058;52.898;6.502;2022-12-29T00:31:00;4.30;;;4.00;;
58260;SDS011;44058;52.898;6.502;2022-12-29T00:33:45;4.68;;;4.20;;
58260;SDS011;44058;52.898;6.502;2022-12-29T00:36:37;5.00;;;4.25;;
58260;SDS011;44058;52.898;6.502;2022-12-29T00:39:07;4.90;;;4.40;;
58260;SDS011;44058;52.898;6.502;2022-12-29T00:41:52;4.60;;;4.20;;
58260;SDS011;44058;52.898;6.502;2022-12-29T00:44:37;6.15;;;4.25;;
58260;SDS011;44058;52.898;6.502;2022-12-29T00:47:03;4.47;;;3.58;;
58260;SDS011;44058;52.898;6.502;2022-12-29T00:49:30;4.60;;;4.20;;
58260;SDS011;44058;52.898;6.502;2022-12-29T00:52:03;5.05;;;3.70;;
58260;SDS011;44058;52.898;6.502;2022-12-29T00:54:32;4.85;;;3.70;;
58260;SDS011;44058;52.898;6.502;2022-12-29T00:56:58;4.47;;;3.95;;
58260;SDS011;44058;52.898;6.502;2022-12-29T00:59:24;4.00;;;3.60;;
58260;SDS011;44058;52.898;6.502;2022-12-29T01:01:51;4.00;;;3.70;;
58260;SDS011;44058;52.898;6.502;2022-12-29T01:04:19;3.88;;;3.45;;
58260;SDS011;44058;52.898;6.502;2022-12-29T01:06:46;5.65;;;3.42;;
58260;SDS011;44058;52.898;6.502;2022-12-29T01:09:12;4.07;;;3.67;;
58260;SDS011;44058;52.898;6.502;2022-12-29T01:11:57;4.00;;;3.60;;
58260;SDS011;44058;52.898;6.502;2022-12-29T01:14:25;5.40;;;2.88;;
58260;SDS011;44058;52.898;6.502;2022-12-29T01:16:51;4.47;;;3.58;;
58260;SDS011;44058;52.898;6.502;2022-12-29T01:19:18;4.15;;;3.10;;
58260;SDS011;44058;52.898;6.502;2022-12-29T01:21:45;4.97;;;3.50;;
58260;SDS011;44058;52.898;6.502;2022-12-29T01:24:11;3.03;;;2.72;;
58260;SDS011;44058;52.898;6.502;2022-12-29T01:26:37;3.28;;;2.97;;
58260;SDS011;44058;52.898;6.502;2022-12-29T01:29:03;3.17;;;2.95;;
58260;SDS011;44058;52.898;6.502;2022-12-29T01:31:30;3.03;;;2.70;;
58260;SDS011;44058;52.898;6.502;2022-12-29T01:33:56;3.63;;;2.95;;
58260;SDS011;44058;52.898;6.502;2022-12-29T01:36:23;3.15;;;2.85;;
58260;SDS011;44058;52.898;6.502;2022-12-29T01:38:49;3.30;;;2.97;;
58260;SDS011;44058;52.898;6.502;2022-12-29T01:41:16;4.45;;;3.20;;
58260;SDS011;44058;52.898;6.502;2022-12-29T01:46:14;3.13;;;2.38;;
58260;SDS011;44058;52.898;6.502;2022-12-29T01:48:42;2.63;;;2.42;;
58260;SDS011;44058;52.898;6.502;2022-12-29T01:51:09;2.70;;;2.40;;
58260;SDS011;44058;52.898;6.502;2022-12-29T01:53:35;2.80;;;2.60;;
58260;SDS011;44058;52.898;6.502;2022-12-29T01:56:03;2.85;;;2.42;;
58260;SDS011;44058;52.898;6.502;2022-12-29T01:58:32;2.50;;;2.30;;
58260;SDS011;44058;52.898;6.502;2022-12-29T02:01:00;2.92;;;2.60;;
58260;SDS011;44058;52.898;6.502;2022-12-29T02:03:26;3.20;;;2.90;;
58260;SDS011;44058;52.898;6.502;2022-12-29T02:05:55;4.80;;;2.90;;
58260;SDS011;44058;52.898;6.502;2022-12-29T02:08:24;3.35;;;2.50;;
58260;SDS011;44058;52.898;6.502;2022-12-29T02:10:51;2.65;;;2.35;;
58260;SDS011;44058;52.898;6.502;2022-12-29T02:13:18;2.45;;;2.22;;
58260;SDS011;44058;52.898;6.502;2022-12-29T02:24:14;2.90;;;2.10;;
58260;SDS011;44058;52.898;6.502;2022-12-29T02:27:04;2.97;;;2.28;;
58260;SDS011;44058;52.898;6.502;2022-12-29T02:35:22;3.10;;;2.00;;
58260;SDS011;44058;52.898;6.502;2022-12-29T02:40:39;5.90;;;2.00;;
58260;SDS011;44058;52.898;6.502;2022-12-29T02:43:11;3.58;;;2.00;;
58260;SDS011;44058;52.898;6.502;2022-12-29T02:46:14;2.33;;;2.10;;
58260;SDS011;44058;52.898;6.502;2022-12-29T02:48:40;2.08;;;1.83;;
58260;SDS011;44058;52.898;6.502;2022-12-29T02:51:09;2.03;;;1.77;;
58260;SDS011;44058;52.898;6.502;2022-12-29T02:53:36;2.53;;;1.77;;
58260;SDS011;44058;52.898;6.502;2022-12-29T02:56:23;2.22;;;1.60;;
58260;SDS011;44058;52.898;6.502;2022-12-29T02:58:53;1.63;;;1.50;;
58260;SDS011;44058;52.898;6.502;2022-12-29T03:06:35;1.42;;;1.33;;
58260;SDS011;44058;52.898;6.502;2022-12-29T03:12:48;2.25;;;1.60;;
58260;SDS011;44058;52.898;6.502;2022-12-29T03:15:14;1.40;;;1.30;;
58260;SDS011;44058;52.898;6.502;2022-12-29T03:18:09;2.53;;;1.63;;
58260;SDS011;44058;52.898;6.502;2022-12-29T03:20:38;1.40;;;1.20;;
58260;SDS011;44058;52.898;6.502;2022-12-29T03:23:05;3.13;;;1.30;;
58260;SDS011;44058;52.898;6.502;2022-12-29T03:25:33;1.20;;;1.10;;
58260;SDS011;44058;52.898;6.502;2022-12-29T03:28:03;2.15;;;1.13;;
58260;SDS011;44058;52.898;6.502;2022-12-29T03:30:31;1.52;;;1.23;;
58260;SDS011;44058;52.898;6.502;2022-12-29T03:32:59;4.10;;;1.60;;
58260;SDS011;44058;52.898;6.502;2022-12-29T03:35:27;1.77;;;1.25;;
58260;SDS011;44058;52.898;6.502;2022-12-29T03:37:58;2.53;;;1.30;;
58260;SDS011;44058;52.898;6.502;2022-12-29T03:40:25;2.40;;;1.30;;
58260;SDS011;44058;52.898;6.502;2022-12-29T03:42:51;1.92;;;1.25;;
58260;SDS011;44058;52.898;6.502;2022-12-29T03:45:19;2.38;;;1.30;;
58260;SDS011;44058;52.898;6.502;2022-12-29T03:47:45;2.13;;;1.42;;
58260;SDS011;44058;52.898;6.502;2022-12-29T03:50:11;3.10;;;1.30;;
58260;SDS011;44058;52.898;6.502;2022-12-29T03:52:37;4.90;;;1.17;;
58260;SDS011;44058;52.898;6.502;2022-12-29T03:55:04;2.33;;;1.08;;
58260;SDS011;44058;52.898;6.502;2022-12-29T03:57:30;1.67;;;1.30;;
58260;SDS011;44058;52.898;6.502;2022-12-29T03:59:56;1.75;;;1.00;;
58260;SDS011;44058;52.898;6.502;2022-12-29T04:02:22;6.00;;;1.60;;
58260;SDS011;44058;52.898;6.502;2022-12-29T04:04:49;2.95;;;1.10;;
58260;SDS011;44058;52.898;6.502;2022-12-29T04:07:19;6.43;;;1.20;;
58260;SDS011;44058;52.898;6.502;2022-12-29T04:09:45;3.65;;;1.02;;
58260;SDS011;44058;52.898;6.502;2022-12-29T04:12:14;2.08;;;0.90;;
58260;SDS011;44058;52.898;6.502;2022-12-29T04:14:40;2.70;;;0.95;;
58260;SDS011;44058;52.898;6.502;2022-12-29T04:17:06;3.20;;;1.13;;
58260;SDS011;44058;52.898;6.502;2022-12-29T04:19:32;1.83;;;0.60;;
58260;SDS011;44058;52.898;6.502;2022-12-29T04:21:59;2.40;;;0.98;;
58260;SDS011;44058;52.898;6.502;2022-12-29T04:24:25;2.40;;;0.77;;
58260;SDS011;44058;52.898;6.502;2022-12-29T04:26:52;3.22;;;1.00;;
58260;SDS011;44058;52.898;6.502;2022-12-29T04:29:18;1.20;;;0.60;;
58260;SDS011;44058;52.898;6.502;2022-12-29T04:31:44;2.65;;;0.70;;
58260;SDS011;44058;52.898;6.502;2022-12-29T04:34:11;2.05;;;0.70;;
58260;SDS011;44058;52.898;6.502;2022-12-29T04:36:37;2.45;;;0.73;;
58260;SDS011;44058;52.898;6.502;2022-12-29T04:39:05;3.08;;;0.85;;
58260;SDS011;44058;52.898;6.502;2022-12-29T04:41:31;2.60;;;1.13;;
58260;SDS011;44058;52.898;6.502;2022-12-29T04:43:58;1.98;;;0.70;;
58260;SDS011;44058;52.898;6.502;2022-12-29T04:46:28;2.92;;;1.00;;
58260;SDS011;44058;52.898;6.502;2022-12-29T04:48:54;4.18;;;1.20;;
58260;SDS011;44058;52.898;6.502;2022-12-29T04:51:20;3.92;;;1.00;;
58260;SDS011;44058;52.898;6.502;2022-12-29T04:53:46;6.15;;;1.60;;
58260;SDS011;44058;52.898;6.502;2022-12-29T04:56:13;6.03;;;1.40;;
58260;SDS011;44058;52.898;6.502;2022-12-29T04:58:39;5.07;;;1.38;;
58260;SDS011;44058;52.898;6.502;2022-12-29T05:01:05;3.58;;;1.20;;
58260;SDS011;44058;52.898;6.502;2022-12-29T05:03:34;4.20;;;1.10;;
58260;SDS011;44058;52.898;6.502;2022-12-29T05:06:00;4.32;;;1.20;;
58260;SDS011;44058;52.898;6.502;2022-12-29T05:08:27;7.03;;;1.33;;
58260;SDS011;44058;52.898;6.502;2022-12-29T05:10:53;9.73;;;1.40;;
58260;SDS011;44058;52.898;6.502;2022-12-29T05:13:19;4.53;;;0.90;;
58260;SDS011;44058;52.898;6.502;2022-12-29T05:15:47;5.75;;;1.33;;
58260;SDS011;44058;52.898;6.502;2022-12-29T05:18:13;7.60;;;1.60;;
58260;SDS011;44058;52.898;6.502;2022-12-29T05:20:43;6.38;;;1.77;;
58260;SDS011;44058;52.898;6.502;2022-12-29T05:23:14;5.60;;;1.20;;
58260;SDS011;44058;52.898;6.502;2022-12-29T05:25:41;5.85;;;1.65;;
58260;SDS011;44058;52.898;6.502;2022-12-29T05:28:07;6.43;;;1.38;;
58260;SDS011;44058;52.898;6.502;2022-12-29T05:30:33;8.35;;;1.55;;
58260;SDS011;44058;52.898;6.502;2022-12-29T05:32:59;4.88;;;1.20;;
58260;SDS011;44058;52.898;6.502;2022-12-29T05:35:25;7.03;;;1.52;;
58260;SDS011;44058;52.898;6.502;2022-12-29T05:37:57;9.23;;;1.30;;
58260;SDS011;44058;52.898;6.502;2022-12-29T05:40:23;4.22;;;1.05;;
58260;SDS011;44058;52.898;6.502;2022-12-29T05:42:49;3.80;;;1.15;;
58260;SDS011;44058;52.898;6.502;2022-12-29T05:45:15;4.32;;;1.00;;
58260;SDS011;44058;52.898;6.502;2022-12-29T05:47:41;3.15;;;0.80;;
58260;SDS011;44058;52.898;6.502;2022-12-29T05:50:07;3.53;;;0.90;;
58260;SDS011;44058;52.898;6.502;2022-12-29T05:52:33;6.80;;;1.10;;
58260;SDS011;44058;52.898;6.502;2022-12-29T05:55:00;3.70;;;1.10;;
58260;SDS011;44058;52.898;6.502;2022-12-29T05:57:26;4.05;;;1.42;;
58260;SDS011;44058;52.898;6.502;2022-12-29T05:59:52;6.22;;;1.00;;
58260;SDS011;44058;52.898;6.502;2022-12-29T06:02:18;4.57;;;1.20;;
58260;SDS011;44058;52.898;6.502;2022-12-29T06:04:44;2.80;;;0.98;;
58260;SDS011;44058;52.898;6.502;2022-12-29T06:07:10;6.80;;;1.20;;
58260;SDS011;44058;52.898;6.502;2022-12-29T06:09:37;3.22;;;1.10;;
58260;SDS011;44058;52.898;6.502;2022-12-29T06:12:04;4.95;;;1.42;;
58260;SDS011;44058;52.898;6.502;2022-12-29T06:14:30;5.95;;;1.38;;
58260;SDS011;44058;52.898;6.502;2022-12-29T06:16:56;6.50;;;1.40;;
58260;SDS011;44058;52.898;6.502;2022-12-29T06:19:22;5.90;;;1.45;;
58260;SDS011;44058;52.898;6.502;2022-12-29T06:21:48;8.35;;;1.88;;
58260;SDS011;44058;52.898;6.502;2022-12-29T06:24:14;4.28;;;1.38;;
58260;SDS011;44058;52.898;6.502;2022-12-29T06:26:40;6.20;;;1.58;;
58260;SDS011;44058;52.898;6.502;2022-12-29T06:29:12;10.73;;;1.42;;
58260;SDS011;44058;52.898;6.502;2022-12-29T06:31:42;5.03;;;1.58;;
58260;SDS011;44058;52.898;6.502;2022-12-29T06:34:30;6.20;;;1.55;;
58260;SDS011;44058;52.898;6.502;2022-12-29T06:37:16;5.82;;;1.13;;
58260;SDS011;44058;52.898;6.502;2022-12-29T06:40:02;12.75;;;1.58;;
58260;SDS011;44058;52.898;6.502;2022-12-29T06:42:48;8.05;;;1.63;;
58260;SDS011;44058;52.898;6.502;2022-12-29T06:45:34;6.85;;;1.48;;
58260;SDS011;44058;52.898;6.502;2022-12-29T06:48:20;7.75;;;1.40;;
58260;SDS011;44058;52.898;6.502;2022-12-29T06:51:01;7.65;;;1.60;;
58260;SDS011;44058;52.898;6.502;2022-12-29T06:53:27;6.47;;;1.70;;
58260;SDS011;44058;52.898;6.502;2022-12-29T06:55:53;6.05;;;1.90;;
58260;SDS011;44058;52.898;6.502;2022-12-29T06:58:21;6.93;;;1.50;;
58260;SDS011;44058;52.898;6.502;2022-12-29T07:00:47;9.23;;;1.88;;
58260;SDS011;44058;52.898;6.502;2022-12-29T07:03:13;8.85;;;1.92;;
58260;SDS011;44058;52.898;6.502;2022-12-29T07:05:41;7.65;;;1.58;;
58260;SDS011;44058;52.898;6.502;2022-12-29T07:08:07;5.90;;;1.58;;
58260;SDS011;44058;52.898;6.502;2022-12-29T07:10:37;6.85;;;1.50;;
58260;SDS011;44058;52.898;6.502;2022-12-29T07:13:07;5.80;;;1.40;;
58260;SDS011;44058;52.898;6.502;2022-12-29T07:15:48;10.52;;;1.40;;
58260;SDS011;44058;52.898;6.502;2022-12-29T07:18:14;8.10;;;1.63;;
58260;SDS011;44058;52.898;6.502;2022-12-29T07:20:41;9.23;;;1.92;;
58260;SDS011;44058;52.898;6.502;2022-12-29T07:23:11;6.32;;;1.50;;
58260;SDS011;44058;52.898;6.502;2022-12-29T07:25:37;13.43;;;1.90;;
58260;SDS011;44058;52.898;6.502;2022-12-29T07:28:12;7.85;;;1.70;;
58260;SDS011;44058;52.898;6.502;2022-12-29T07:30:39;8.20;;;1.70;;
58260;SDS011;44058;52.898;6.502;2022-12-29T07:33:06;11.40;;;2.17;;
58260;SDS011;44058;52.898;6.502;2022-12-29T07:35:33;6.35;;;1.40;;
58260;SDS011;44058;52.898;6.502;2022-12-29T07:38:00;10.18;;;1.83;;
58260;SDS011;44058;52.898;6.502;2022-12-29T07:40:26;11.48;;;2.08;;
58260;SDS011;44058;52.898;6.502;2022-12-29T07:42:52;10.52;;;1.92;;
58260;SDS011;44058;52.898;6.502;2022-12-29T07:45:20;10.35;;;1.50;;
58260;SDS011;44058;52.898;6.502;2022-12-29T07:47:49;8.50;;;2.13;;
58260;SDS011;44058;52.898;6.502;2022-12-29T07:52:41;7.03;;;1.48;;
58260;SDS011;44058;52.898;6.502;2022-12-29T07:55:08;8.88;;;1.38;;
58260;SDS011;44058;52.898;6.502;2022-12-29T07:57:34;10.18;;;2.20;;
58260;SDS011;44058;52.898;6.502;2022-12-29T08:00:00;9.88;;;1.92;;
58260;SDS011;44058;52.898;6.502;2022-12-29T08:02:26;7.97;;;1.77;;
58260;SDS011;44058;52.898;6.502;2022-12-29T08:04:53;11.27;;;2.00;;
58260;SDS011;44058;52.898;6.502;2022-12-29T08:07:19;11.00;;;2.13;;
58260;SDS011;44058;52.898;6.502;2022-12-29T08:09:46;7.65;;;1.65;;
58260;SDS011;44058;52.898;6.502;2022-12-29T08:12:13;11.20;;;1.98;;
58260;SDS011;44058;52.898;6.502;2022-12-29T08:14:39;8.85;;;1.73;;
58260;SDS011;44058;52.898;6.502;2022-12-29T08:17:06;12.10;;;2.00;;
58260;SDS011;44058;52.898;6.502;2022-12-29T08:19:33;10.27;;;2.40;;
58260;SDS011;44058;52.898;6.502;2022-12-29T08:21:59;10.70;;;2.30;;
58260;SDS011;44058;52.898;6.502;2022-12-29T08:24:25;10.30;;;2.33;;
58260;SDS011;44058;52.898;6.502;2022-12-29T08:26:51;13.02;;;2.55;;
58260;SDS011;44058;52.898;6.502;2022-12-29T08:29:17;9.93;;;1.70;;
58260;SDS011;44058;52.898;6.502;2022-12-29T08:31:44;10.25;;;2.80;;
58260;SDS011;44058;52.898;6.502;2022-12-29T08:34:11;12.52;;;2.30;;
58260;SDS011;44058;52.898;6.502;2022-12-29T08:36:37;10.95;;;2.08;;
58260;SDS011;44058;52.898;6.502;2022-12-29T08:39:03;12.10;;;2.17;;
58260;SDS011;44058;52.898;6.502;2022-12-29T08:41:29;13.23;;;2.42;;
58260;SDS011;44058;52.898;6.502;2022-12-29T08:43:55;14.93;;;2.70;;
58260;SDS011;44058;52.898;6.502;2022-12-29T08:46:22;13.65;;;2.45;;
58260;SDS011;44058;52.898;6.502;2022-12-29T08:48:48;9.48;;;1.80;;
58260;SDS011;44058;52.898;6.502;2022-12-29T08:51:14;11.25;;;2.17;;
58260;SDS011;44058;52.898;6.502;2022-12-29T08:53:40;9.38;;;1.95;;
58260;SDS011;44058;52.898;6.502;2022-12-29T08:56:08;10.02;;;1.95;;
58260;SDS011;44058;52.898;6.502;2022-12-29T08:58:34;8.75;;;1.90;;
58260;SDS011;44058;52.898;6.502;2022-12-29T09:01:01;8.90;;;1.90;;
58260;SDS011;44058;52.898;6.502;2022-12-29T09:03:28;9.45;;;1.90;;
58260;SDS011;44058;52.898;6.502;2022-12-29T09:05:54;9.52;;;2.13;;
58260;SDS011;44058;52.898;6.502;2022-12-29T09:08:20;8.80;;;2.03;;
58260;SDS011;44058;52.898;6.502;2022-12-29T09:10:47;6.97;;;1.70;;
58260;SDS011;44058;52.898;6.502;2022-12-29T09:13:14;9.85;;;1.95;;
58260;SDS011;44058;52.898;6.502;2022-12-29T09:15:40;11.35;;;1.83;;
58260;SDS011;44058;52.898;6.502;2022-12-29T09:18:07;9.85;;;1.67;;
58260;SDS011;44058;52.898;6.502;2022-12-29T09:20:34;10.75;;;1.92;;
58260;SDS011;44058;52.898;6.502;2022-12-29T09:23:00;10.88;;;1.98;;
58260;SDS011;44058;52.898;6.502;2022-12-29T09:25:26;8.80;;;2.25;;
58260;SDS011;44058;52.898;6.502;2022-12-29T09:27:53;11.15;;;2.10;;
58260;SDS011;44058;52.898;6.502;2022-12-29T09:30:20;11.60;;;2.05;;
58260;SDS011;44058;52.898;6.502;2022-12-29T09:32:46;9.45;;;1.92;;
58260;SDS011;44058;52.898;6.502;2022-12-29T09:37:51;7.90;;;1.98;;
58260;SDS011;44058;52.898;6.502;2022-12-29T09:40:22;11.88;;;2.20;;
58260;SDS011;44058;52.898;6.502;2022-12-29T09:42:55;9.75;;;2.47;;
58260;SDS011;44058;52.898;6.502;2022-12-29T09:47:55;11.23;;;2.10;;
58260;SDS011;44058;52.898;6.502;2022-12-29T09:50:26;13.18;;;1.85;;
58260;SDS011;44058;52.898;6.502;2022-12-29T09:53:01;5.45;;;1.50;;
58260;SDS011;44058;52.898;6.502;2022-12-29T09:55:52;9.45;;;2.08;;
58260;SDS011;44058;52.898;6.502;2022-12-29T09:58:24;7.32;;;1.75;;
58260;SDS011;44058;52.898;6.502;2022-12-29T10:00:54;11.35;;;2.35;;
58260;SDS011;44058;52.898;6.502;2022-12-29T10:03:24;9.35;;;1.83;;
58260;SDS011;44058;52.898;6.502;2022-12-29T10:05:56;8.35;;;1.85;;
58260;SDS011;44058;52.898;6.502;2022-12-29T10:08:40;11.88;;;2.50;;
58260;SDS011;44058;52.898;6.502;2022-12-29T10:22:07;9.93;;;1.92;;
58260;SDS011;44058;52.898;6.502;2022-12-29T10:24:37;13.68;;;2.35;;
58260;SDS011;44058;52.898;6.502;2022-12-29T10:27:04;9.82;;;2.17;;
58260;SDS011;44058;52.898;6.502;2022-12-29T10:29:36;10.45;;;1.88;;
58260;SDS011;44058;52.898;6.502;2022-12-29T10:32:09;7.32;;;1.67;;
58260;SDS011;44058;52.898;6.502;2022-12-29T10:34:43;7.95;;;2.10;;
58260;SDS011;44058;52.898;6.502;2022-12-29T10:42:11;8.32;;;1.77;;
58260;SDS011;44058;52.898;6.502;2022-12-29T10:44:39;6.97;;;1.60;;
58260;SDS011;44058;52.898;6.502;2022-12-29T10:47:25;13.40;;;2.42;;
58260;SDS011;44058;52.898;6.502;2022-12-29T10:49:52;10.20;;;1.45;;
58260;SDS011;44058;52.898;6.502;2022-12-29T10:52:18;7.53;;;1.85;;
58260;SDS011;44058;52.898;6.502;2022-12-29T10:57:34;7.13;;;2.03;;
58260;SDS011;44058;52.898;6.502;2022-12-29T11:00:12;6.30;;;1.48;;
58260;SDS011;44058;52.898;6.502;2022-12-29T11:07:58;9.85;;;2.15;;
58260;SDS011;44058;52.898;6.502;2022-12-29T11:12:58;7.65;;;1.60;;
58260;SDS011;44058;52.898;6.502;2022-12-29T11:15:25;8.63;;;1.70;;
58260;SDS011;44058;52.898;6.502;2022-12-29T11:20:31;9.63;;;1.80;;
58260;SDS011;44058;52.898;6.502;2022-12-29T11:23:04;9.43;;;1.63;;
58260;SDS011;44058;52.898;6.502;2022-12-29T11:25:30;7.43;;;2.05;;
58260;SDS011;44058;52.898;6.502;2022-12-29T11:28:00;9.35;;;2.03;;
58260;SDS011;44058;52.898;6.502;2022-12-29T11:30:28;10.10;;;1.77;;
58260;SDS011;44058;52.898;6.502;2022-12-29T11:32:55;5.32;;;1.83;;
58260;SDS011;44058;52.898;6.502;2022-12-29T11:35:31;9.52;;;2.10;;
58260;SDS011;44058;52.898;6.502;2022-12-29T11:37:58;9.38;;;1.92;;
58260;SDS011;44058;52.898;6.502;2022-12-29T11:40:25;13.23;;;2.40;;
58260;SDS011;44058;52.898;6.502;2022-12-29T11:42:54;9.82;;;2.30;;
58260;SDS011;44058;52.898;6.502;2022-12-29T11:45:31;8.77;;;2.33;;
58260;SDS011;44058;52.898;6.502;2022-12-29T11:48:00;9.48;;;2.20;;
58260;SDS011;44058;52.898;6.502;2022-12-29T11:50:51;13.75;;;2.50;;
58260;SDS011;44058;52.898;6.502;2022-12-29T11:56:34;17.05;;;2.28;;
58260;SDS011;44058;52.898;6.502;2022-12-29T11:59:43;9.85;;;2.45;;
58260;SDS011;44058;52.898;6.502;2022-12-29T12:05:22;14.32;;;3.17;;
58260;SDS011;44058;52.898;6.502;2022-12-29T12:08:19;12.90;;;3.03;;
58260;SDS011;44058;52.898;6.502;2022-12-29T12:11:12;13.02;;;2.30;;
58260;SDS011;44058;52.898;6.502;2022-12-29T12:14:01;14.82;;;2.88;;
58260;SDS011;44058;52.898;6.502;2022-12-29T12:16:55;12.35;;;2.38;;
58260;SDS011;44058;52.898;6.502;2022-12-29T12:19:47;16.27;;;3.20;;
58260;SDS011;44058;52.898;6.502;2022-12-29T12:22:36;11.98;;;2.40;;
58260;SDS011;44058;52.898;6.502;2022-12-29T12:25:25;13.75;;;3.40;;
58260;SDS011;44058;52.898;6.502;2022-12-29T12:31:59;12.90;;;2.83;;
58260;SDS011;44058;52.898;6.502;2022-12-29T12:37:18;14.73;;;3.00;;
58260;SDS011;44058;52.898;6.502;2022-12-29T12:39:48;16.73;;;3.13;;
58260;SDS011;44058;52.898;6.502;2022-12-29T12:47:49;18.35;;;3.25;;
58260;SDS011;44058;52.898;6.502;2022-12-29T12:50:31;17.25;;;4.03;;
58260;SDS011;44058;52.898;6.502;2022-12-29T12:58:40;14.52;;;2.90;;
58260;SDS011;44058;52.898;6.502;2022-12-29T13:01:29;17.45;;;2.65;;
58260;SDS011;44058;52.898;6.502;2022-12-29T13:09:33;14.65;;;2.28;;
58260;SDS011;44058;52.898;6.502;2022-12-29T13:24:34;12.45;;;2.17;;
58260;SDS011;44058;52.898;6.502;2022-12-29T13:27:04;13.98;;;2.80;;
58260;SDS011;44058;52.898;6.502;2022-12-29T13:35:08;10.45;;;2.33;;
58260;SDS011;44058;52.898;6.502;2022-12-29T13:37:44;12.60;;;2.22;;
58260;SDS011;44058;52.898;6.502;2022-12-29T13:40:16;12.43;;;2.83;;
58260;SDS011;44058;52.898;6.502;2022-12-29T13:42:43;14.50;;;2.55;;
58260;SDS011;44058;52.898;6.502;2022-12-29T13:45:10;9.90;;;2.42;;
58260;SDS011;44058;52.898;6.502;2022-12-29T13:47:40;9.90;;;2.40;;
58260;SDS011;44058;52.898;6.502;2022-12-29T13:50:15;9.38;;;2.17;;
58260;SDS011;44058;52.898;6.502;2022-12-29T13:52:55;10.93;;;2.03;;
58260;SDS011;44058;52.898;6.502;2022-12-29T14:00:48;10.85;;;2.20;;
58260;SDS011;44058;52.898;6.502;2022-12-29T14:05:41;10.88;;;2.65;;
58260;SDS011;44058;52.898;6.502;2022-12-29T14:08:15;9.18;;;2.10;;
58260;SDS011;44058;52.898;6.502;2022-12-29T14:10:49;11.07;;;2.17;;
58260;SDS011;44058;52.898;6.502;2022-12-29T14:13:17;11.93;;;2.40;;
58260;SDS011;44058;52.898;6.502;2022-12-29T14:15:44;9.55;;;2.10;;
58260;SDS011;44058;52.898;6.502;2022-12-29T14:18:13;9.02;;;1.58;;
58260;SDS011;44058;52.898;6.502;2022-12-29T14:20:46;7.47;;;2.00;;
58260;SDS011;44058;52.898;6.502;2022-12-29T14:28:28;6.90;;;1.50;;
58260;SDS011;44058;52.898;6.502;2022-12-29T14:30:56;8.15;;;1.88;;
58260;SDS011;44058;52.898;6.502;2022-12-29T14:33:23;9.15;;;1.40;;
58260;SDS011;44058;52.898;6.502;2022-12-29T14:35:51;11.63;;;1.85;;
58260;SDS011;44058;52.898;6.502;2022-12-29T14:38:19;10.80;;;2.47;;
58260;SDS011;44058;52.898;6.502;2022-12-29T14:40:47;9.68;;;1.60;;
58260;SDS011;44058;52.898;6.502;2022-12-29T14:43:16;5.07;;;1.35;;
58260;SDS011;44058;52.898;6.502;2022-12-29T14:45:43;9.68;;;1.67;;
58260;SDS011;44058;52.898;6.502;2022-12-29T14:51:02;15.32;;;2.35;;
58260;SDS011;44058;52.898;6.502;2022-12-29T14:53:44;7.90;;;1.30;;
58260;SDS011;44058;52.898;6.502;2022-12-29T14:56:11;8.70;;;1.90;;
58260;SDS011;44058;52.898;6.502;2022-12-29T15:01:04;9.02;;;1.80;;
58260;SDS011;44058;52.898;6.502;2022-12-29T15:03:50;8.85;;;1.35;;
58260;SDS011;44058;52.898;6.502;2022-12-29T15:06:18;11.63;;;1.42;;
58260;SDS011;44058;52.898;6.502;2022-12-29T15:13:58;9.18;;;1.80;;
58260;SDS011;44058;52.898;6.502;2022-12-29T15:16:25;7.97;;;1.90;;
58260;SDS011;44058;52.898;6.502;2022-12-29T15:18:53;9.90;;;2.28;;
58260;SDS011;44058;52.898;6.502;2022-12-29T15:21:21;9.70;;;1.85;;
58260;SDS011;44058;52.898;6.502;2022-12-29T15:23:48;9.57;;;1.67;;
58260;SDS011;44058;52.898;6.502;2022-12-29T15:26:15;11.55;;;2.00;;
58260;SDS011;44058;52.898;6.502;2022-12-29T15:28:47;9.35;;;2.17;;
58260;SDS011;44058;52.898;6.502;2022-12-29T15:31:14;11.23;;;2.88;;
58260;SDS011;44058;52.898;6.502;2022-12-29T15:33:42;9.02;;;1.92;;
58260;SDS011;44058;52.898;6.502;2022-12-29T15:36:12;10.63;;;2.10;;
58260;SDS011;44058;52.898;6.502;2022-12-29T15:38:38;9.75;;;1.92;;
58260;SDS011;44058;52.898;6.502;2022-12-29T15:41:06;9.13;;;2.15;;
58260;SDS011;44058;52.898;6.502;2022-12-29T15:45:59;8.32;;;2.70;;
58260;SDS011;44058;52.898;6.502;2022-12-29T15:48:26;9.68;;;2.65;;
58260;SDS011;44058;52.898;6.502;2022-12-29T15:50:53;11.88;;;2.72;;
58260;SDS011;44058;52.898;6.502;2022-12-29T15:53:31;12.57;;;2.53;;
58260;SDS011;44058;52.898;6.502;2022-12-29T15:56:01;9.25;;;1.88;;
58260;SDS011;44058;52.898;6.502;2022-12-29T15:58:29;13.80;;;2.53;;
58260;SDS011;44058;52.898;6.502;2022-12-29T16:01:00;9.60;;;2.10;;
58260;SDS011;44058;52.898;6.502;2022-12-29T16:03:31;8.05;;;1.83;;
58260;SDS011;44058;52.898;6.502;2022-12-29T16:06:31;12.60;;;2.08;;
58260;SDS011;44058;52.898;6.502;2022-12-29T16:13:59;10.88;;;2.38;;
58260;SDS011;44058;52.898;6.502;2022-12-29T16:16:29;8.35;;;2.13;;
58260;SDS011;44058;52.898;6.502;2022-12-29T16:18:57;11.23;;;2.38;;
58260;SDS011;44058;52.898;6.502;2022-12-29T16:21:33;9.93;;;2.20;;
58260;SDS011;44058;52.898;6.502;2022-12-29T16:24:02;8.68;;;2.55;;
58260;SDS011;44058;52.898;6.502;2022-12-29T16:26:28;10.20;;;1.95;;
58260;SDS011;44058;52.898;6.502;2022-12-29T16:28:56;8.85;;;1.92;;
58260;SDS011;44058;52.898;6.502;2022-12-29T16:36:33;10.88;;;2.38;;
58260;SDS011;44058;52.898;6.502;2022-12-29T16:39:19;6.35;;;2.13;;
58260;SDS011;44058;52.898;6.502;2022-12-29T16:41:50;9.77;;;1.75;;
58260;SDS011;44058;52.898;6.502;2022-12-29T16:44:18;1.50;;;0.80;;
58260;SDS011;44058;52.898;6.502;2022-12-29T16:49:32;2.13;;;0.60;;
58260;SDS011;44058;52.898;6.502;2022-12-29T16:51:59;2.13;;;0.60;;
58260;SDS011;44058;52.898;6.502;2022-12-29T16:54:35;1.38;;;0.40;;
58260;SDS011;44058;52.898;6.502;2022-12-29T16:57:06;2.00;;;0.60;;
58260;SDS011;44058;52.898;6.502;2022-12-29T16:59:42;2.08;;;0.45;;
58260;SDS011;44058;52.898;6.502;2022-12-29T17:02:16;1.67;;;0.50;;
58260;SDS011;44058;52.898;6.502;2022-12-29T17:04:46;1.95;;;0.40;;
58260;SDS011;44058;52.898;6.502;2022-12-29T17:07:19;1.45;;;0.60;;
58260;SDS011;44058;52.898;6.502;2022-12-29T17:09:47;1.90;;;0.50;;
58260;SDS011;44058;52.898;6.502;2022-12-29T17:12:21;1.42;;;0.85;;
58260;SDS011;44058;52.898;6.502;2022-12-29T17:14:48;2.75;;;0.75;;
58260;SDS011;44058;52.898;6.502;2022-12-29T17:17:18;3.22;;;0.82;;
58260;SDS011;44058;52.898;6.502;2022-12-29T17:19:50;1.70;;;0.80;;
58260;SDS011;44058;52.898;6.502;2022-12-29T17:22:19;2.40;;;0.98;;
58260;SDS011;44058;52.898;6.502;2022-12-29T17:24:46;4.53;;;1.17;;
58260;SDS011;44058;52.898;6.502;2022-12-29T17:27:18;3.40;;;1.23;;
58260;SDS011;44058;52.898;6.502;2022-12-29T17:29:44;5.35;;;1.88;;
58260;SDS011;44058;52.898;6.502;2022-12-29T17:32:12;3.20;;;1.50;;
58260;SDS011;44058;52.898;6.502;2022-12-29T17:34:40;3.10;;;1.63;;